Time;durP1;ratioP1;P1;durP2;ratioP2;P2;SDS_P1;SDS_P2;PMS_P1;PMS_P2;Temp;Humidity;BMP_temperature;BMP_pressure;BME280_temperature;BME280_humidity;BME280_pressure;Samples;Min_cycle;Max_cycle;Signal;HPM_P1;HPM_P2
2022/11/21 00:00:47;;;;;;;8.25;1.85;;;7.10;99.90;;;;;;5013526;28;20105;-47
2022/11/21 00:03:13;;;;;;;3.42;1.20;;;7.10;99.90;;;;;;5013381;28;20398;-47
2022/11/21 00:05:41;;;;;;;4.88;1.55;;;7.10;99.90;;;;;;5013834;28;20054;-52
2022/11/21 00:08:07;;;;;;;4.72;2.88;;;7.00;99.90;;;;;;5013781;28;20062;-43
2022/11/21 00:10:33;;;;;;;3.40;1.40;;;7.10;99.90;;;;;;5013921;28;20030;-50
2022/11/21 00:12:58;;;;;;;7.88;2.13;;;7.00;99.90;;;;;;5013433;28;20022;-49
2022/11/21 00:15:25;;;;;;;8.75;2.17;;;7.00;99.90;;;;;;5029105;28;20540;-48
2022/11/21 00:17:51;;;;;;;6.53;2.22;;;7.00;99.90;;;;;;5013797;28;20057;-45
2022/11/21 00:20:19;;;;;;;6.50;1.83;;;7.00;99.90;;;;;;5013682;28;20033;-50
2022/11/21 00:22:45;;;;;;;9.45;2.45;;;6.90;99.90;;;;;;5013097;28;20096;-47
2022/11/21 00:25:10;;;;;;;8.10;2.05;;;7.00;99.90;;;;;;5028861;28;20026;-47
2022/11/21 00:27:36;;;;;;;11.52;2.33;;;6.90;99.90;;;;;;5013619;28;20029;-45
2022/11/21 00:30:02;;;;;;;8.70;2.60;;;6.90;99.90;;;;;;5013692;28;20021;-48
2022/11/21 00:32:27;;;;;;;11.77;2.40;;;6.90;99.90;;;;;;5027916;28;20088;-47
2022/11/21 00:34:53;;;;;;;14.60;3.10;;;6.90;99.90;;;;;;5011539;28;20056;-49
2022/11/21 00:37:18;;;;;;;9.98;2.67;;;6.90;99.90;;;;;;5014094;28;20041;-47
2022/11/21 00:39:44;;;;;;;9.18;1.98;;;6.90;99.90;;;;;;5029019;28;20041;-44
2022/11/21 00:42:09;;;;;;;7.25;2.17;;;6.80;99.90;;;;;;5012675;28;20072;-52
2022/11/21 00:44:35;;;;;;;8.82;2.45;;;6.80;99.90;;;;;;5013312;28;20021;-49
2022/11/21 00:47:00;;;;;;;12.18;1.98;;;6.80;99.90;;;;;;5013877;28;20467;-50
2022/11/21 00:49:26;;;;;;;9.82;2.28;;;6.80;99.90;;;;;;5013291;28;20393;-50
2022/11/21 00:51:52;;;;;;;12.52;2.40;;;6.80;99.90;;;;;;5012974;28;20021;-46
2022/11/21 00:54:18;;;;;;;10.75;2.40;;;6.80;99.90;;;;;;5012902;28;20088;-46
2022/11/21 00:56:43;;;;;;;14.40;3.22;;;6.80;99.90;;;;;;5013448;28;20022;-47
2022/11/21 00:59:09;;;;;;;9.50;2.15;;;6.80;99.90;;;;;;5013276;28;20390;-46
2022/11/21 01:01:34;;;;;;;13.27;2.63;;;6.80;99.90;;;;;;5013238;28;20037;-52
2022/11/21 01:04:00;;;;;;;12.10;2.15;;;6.70;99.90;;;;;;5010606;28;20075;-43
2022/11/21 01:06:25;;;;;;;12.43;3.17;;;6.70;99.90;;;;;;5012944;28;20068;-48
2022/11/21 01:08:51;;;;;;;9.77;2.08;;;6.70;99.90;;;;;;5012970;28;20429;-48
2022/11/21 01:11:19;;;;;;;9.98;2.20;;;6.60;99.90;;;;;;5011831;28;20018;-46
2022/11/21 01:13:46;;;;;;;13.60;2.83;;;6.60;99.90;;;;;;5011944;28;20548;-49
2022/11/21 01:16:17;;;;;;;11.23;2.50;;;6.60;99.90;;;;;;5012865;28;20402;-49
2022/11/21 01:18:43;;;;;;;6.72;3.03;;;6.60;99.90;;;;;;5012668;28;20026;-48
2022/11/21 01:21:25;;;;;;;12.18;2.35;;;6.60;99.90;;;;;;5012799;28;20537;-49
2022/11/21 01:23:51;;;;;;;9.57;2.30;;;6.50;99.90;;;;;;5011963;28;20481;-47
2022/11/21 01:26:22;;;;;;;15.60;2.40;;;6.50;99.90;;;;;;5012600;28;20034;-45
2022/11/21 01:28:48;;;;;;;8.07;2.15;;;6.50;99.90;;;;;;5012502;28;20022;-53
2022/11/21 01:31:15;;;;;;;6.85;3.13;;;6.50;99.90;;;;;;5027725;28;20033;-48
2022/11/21 01:33:41;;;;;;;13.77;2.42;;;6.50;99.90;;;;;;5009994;28;20025;-48
2022/11/21 01:36:12;;;;;;;14.73;3.78;;;6.50;99.90;;;;;;5012578;28;20018;-46
2022/11/21 01:38:43;;;;;;;14.43;2.30;;;6.50;99.90;;;;;;5012299;28;20029;-43
2022/11/21 01:41:10;;;;;;;9.65;2.42;;;6.50;99.90;;;;;;5012135;28;20034;-51
2022/11/21 01:43:36;;;;;;;7.57;2.15;;;6.50;99.90;;;;;;5011553;28;20022;-48
2022/11/21 01:46:08;;;;;;;8.07;2.55;;;6.40;99.90;;;;;;5012210;28;20026;-49
2022/11/21 01:49:00;;;;;;;8.70;2.58;;;6.40;99.90;;;;;;5012167;28;20053;-44
2022/11/21 01:51:36;;;;;;;8.77;2.17;;;6.40;99.90;;;;;;5012682;28;20021;-42
2022/11/21 01:54:23;;;;;;;14.90;2.53;;;6.40;99.90;;;;;;5011407;28;20402;-47
2022/11/21 01:57:04;;;;;;;15.95;2.58;;;6.40;99.90;;;;;;5012076;28;20026;-48
2022/11/21 01:59:59;;;;;;;9.63;2.30;;;6.50;99.90;;;;;;5011986;28;20080;-52
2022/11/21 02:02:30;;;;;;;9.27;2.78;;;6.50;99.90;;;;;;5000669;28;20406;-49
2022/11/21 02:04:56;;;;;;;13.65;3.65;;;6.40;99.90;;;;;;5011990;28;20029;-43
2022/11/21 02:07:24;;;;;;;17.00;3.05;;;6.50;99.90;;;;;;5011999;28;20025;-53
2022/11/21 02:09:57;;;;;;;11.13;2.80;;;6.50;99.90;;;;;;5011924;28;20398;-49
2022/11/21 02:12:33;;;;;;;12.85;2.20;;;6.50;99.90;;;;;;5011403;28;20014;-45
2022/11/21 02:14:59;;;;;;;12.00;2.65;;;6.50;99.90;;;;;;5027656;28;20386;-50
2022/11/21 02:17:28;;;;;;;10.77;2.38;;;6.50;99.90;;;;;;5012756;28;20049;-49
2022/11/21 02:20:03;;;;;;;9.55;1.90;;;6.50;99.90;;;;;;5011918;28;20394;-43
2022/11/21 02:23:06;;;;;;;11.60;2.80;;;6.50;99.90;;;;;;5010862;28;20061;-51
2022/11/21 02:25:41;;;;;;;8.27;2.65;;;6.50;99.90;;;;;;5011736;28;20117;-48
2022/11/21 02:28:10;;;;;;;12.48;2.40;;;6.50;99.90;;;;;;5011979;28;20022;-50
2022/11/21 02:30:38;;;;;;;10.23;2.42;;;6.50;99.90;;;;;;5011764;28;20442;-50
2022/11/21 02:33:04;;;;;;;8.38;2.95;;;6.40;99.90;;;;;;5009180;28;20030;-50
2022/11/21 02:35:30;;;;;;;10.07;2.72;;;6.40;99.90;;;;;;5011742;28;20030;-46
2022/11/21 02:37:58;;;;;;;17.38;3.03;;;6.30;99.90;;;;;;5011771;28;20026;-50
2022/11/21 02:40:27;;;;;;;7.43;3.05;;;6.20;99.90;;;;;;5011421;28;20340;-47
2022/11/21 02:43:15;;;;;;;16.13;3.08;;;6.30;99.90;;;;;;5010939;28;20541;-51
2022/11/21 02:45:42;;;;;;;11.63;3.75;;;6.20;99.90;;;;;;5010100;28;20034;-48
2022/11/21 02:48:08;;;;;;;6.78;2.30;;;6.20;99.90;;;;;;5011583;28;20532;-47
2022/11/21 02:50:39;;;;;;;11.15;2.35;;;6.20;99.90;;;;;;5011440;28;20026;-45
2022/11/21 02:53:07;;;;;;;10.50;2.40;;;6.10;99.90;;;;;;5010873;28;20033;-45
2022/11/21 02:55:33;;;;;;;11.20;3.30;;;6.10;99.90;;;;;;5011581;28;20064;-51
2022/11/21 02:57:59;;;;;;;11.05;3.08;;;6.10;99.90;;;;;;5011734;28;20065;-50
2022/11/21 03:00:24;;;;;;;8.95;2.20;;;6.00;99.90;;;;;;5011817;28;20599;-44
2022/11/21 03:02:50;;;;;;;9.90;2.75;;;6.10;99.90;;;;;;5010912;28;20482;-49
2022/11/21 03:05:17;;;;;;;11.57;2.60;;;6.00;99.90;;;;;;5011325;28;20394;-50
2022/11/21 03:07:44;;;;;;;6.07;2.45;;;6.10;99.90;;;;;;5011230;28;20445;-48
2022/11/21 03:10:10;;;;;;;10.98;2.58;;;6.00;99.90;;;;;;5011287;28;20037;-48
2022/11/21 03:12:39;;;;;;;9.63;2.47;;;6.10;99.90;;;;;;5010566;28;20034;-49
2022/11/21 03:15:07;;;;;;;16.02;3.03;;;6.10;99.90;;;;;;5011330;28;20033;-52
2022/11/21 03:17:33;;;;;;;7.28;2.10;;;6.10;99.90;;;;;;5011225;28;20096;-47
2022/11/21 03:19:59;;;;;;;16.17;3.08;;;6.10;99.90;;;;;;5011235;28;20402;-40
2022/11/21 03:22:24;;;;;;;11.82;2.22;;;6.00;99.90;;;;;;5009248;28;20383;-46
2022/11/21 03:24:50;;;;;;;7.88;2.22;;;6.00;99.90;;;;;;5011050;28;20037;-47
2022/11/21 03:27:15;;;;;;;6.35;2.13;;;6.10;99.90;;;;;;5011075;28;20103;-45
2022/11/21 03:29:41;;;;;;;6.35;2.28;;;6.10;99.90;;;;;;5011165;28;20022;-46
2022/11/21 03:32:06;;;;;;;10.07;2.22;;;6.10;99.90;;;;;;5011001;28;20073;-46
2022/11/21 03:34:32;;;;;;;2.90;1.60;;;6.20;99.90;;;;;;5009804;28;20029;-45
2022/11/21 03:36:57;;;;;;;5.85;1.90;;;6.20;99.90;;;;;;5014486;28;20095;-47
2022/11/21 03:39:23;;;;;;;8.10;1.70;;;6.20;99.90;;;;;;5014811;28;20485;-45
2022/11/21 03:41:48;;;;;;;4.07;1.45;;;6.20;99.90;;;;;;5014184;28;20038;-47
2022/11/21 03:44:14;;;;;;;9.32;2.10;;;6.20;99.90;;;;;;5014637;28;20029;-45
2022/11/21 03:46:45;;;;;;;10.43;2.92;;;6.20;99.90;;;;;;5014706;28;20022;-47
2022/11/21 03:49:11;;;;;;;5.78;1.77;;;6.20;99.90;;;;;;5014846;28;20032;-47
2022/11/21 03:51:38;;;;;;;6.65;1.75;;;6.20;99.90;;;;;;5014318;28;20465;-44
2022/11/21 03:54:04;;;;;;;5.03;2.55;;;6.20;99.90;;;;;;5012792;28;20026;-50
2022/11/21 03:56:30;;;;;;;7.00;2.05;;;6.20;99.90;;;;;;5014543;28;20029;-53
2022/11/21 03:58:56;;;;;;;5.90;1.63;;;6.20;99.90;;;;;;5014411;28;20061;-51
2022/11/21 04:01:22;;;;;;;8.80;1.80;;;6.20;99.90;;;;;;5014588;28;20049;-44
2022/11/21 04:03:48;;;;;;;7.22;1.90;;;6.10;99.90;;;;;;5013762;28;20030;-51
2022/11/21 04:06:16;;;;;;;4.60;2.55;;;6.20;99.90;;;;;;5013808;28;20371;-50
2022/11/21 04:08:41;;;;;;;6.82;2.25;;;6.20;99.90;;;;;;5014298;28;20021;-47
2022/11/21 04:11:07;;;;;;;11.63;2.58;;;6.20;99.90;;;;;;5014337;28;20022;-48
2022/11/21 04:13:33;;;;;;;10.88;2.33;;;6.20;99.90;;;;;;5013405;28;20022;-43
2022/11/21 04:15:58;;;;;;;7.90;2.17;;;6.30;99.90;;;;;;5013868;28;20375;-49
2022/11/21 04:18:24;;;;;;;8.32;2.17;;;6.30;99.90;;;;;;5013943;28;20029;-51
2022/11/21 04:21:02;;;;;;;8.20;2.13;;;6.30;99.90;;;;;;5013579;28;20026;-49
2022/11/21 04:23:28;;;;;;;3.92;2.15;;;6.40;99.90;;;;;;5013212;28;20022;-50
2022/11/21 04:25:53;;;;;;;14.88;2.78;;;6.30;99.90;;;;;;5013766;28;20402;-43
2022/11/21 04:28:20;;;;;;;8.38;2.28;;;6.30;99.90;;;;;;5013675;28;20018;-53
2022/11/21 04:30:45;;;;;;;9.32;2.20;;;6.30;99.90;;;;;;5013550;28;20021;-51
2022/11/21 04:33:13;;;;;;;9.88;2.20;;;6.30;99.90;;;;;;5011053;28;20022;-49
2022/11/21 04:35:39;;;;;;;6.05;1.65;;;6.30;99.90;;;;;;5013457;28;20112;-42
2022/11/21 04:38:04;;;;;;;8.52;2.90;;;6.40;99.90;;;;;;5013547;28;20061;-52
2022/11/21 04:40:30;;;;;;;5.35;2.00;;;6.30;99.90;;;;;;5013354;28;20101;-46
2022/11/21 04:42:55;;;;;;;6.65;2.25;;;6.30;99.90;;;;;;5012649;28;20030;-54
2022/11/21 04:45:21;;;;;;;7.00;2.10;;;6.30;99.90;;;;;;5011714;28;20126;-42
2022/11/21 04:47:48;;;;;;;4.68;1.83;;;6.30;99.90;;;;;;5013192;28;20029;-51
2022/11/21 04:50:15;;;;;;;8.02;2.58;;;6.30;99.90;;;;;;5013391;28;20026;-48
2022/11/21 04:52:41;;;;;;;8.88;2.47;;;6.30;99.90;;;;;;5012360;28;20030;-46
2022/11/21 04:55:07;;;;;;;9.38;2.10;;;6.30;99.90;;;;;;5013164;28;20026;-46
2022/11/21 04:57:33;;;;;;;9.32;2.47;;;6.30;99.90;;;;;;5012967;28;20088;-50
2022/11/21 04:59:59;;;;;;;6.65;1.65;;;6.30;99.90;;;;;;5013077;28;20083;-51
2022/11/21 05:02:25;;;;;;;7.50;1.42;;;6.30;99.90;;;;;;5012202;28;20025;-51
2022/11/21 05:04:50;;;;;;;6.78;1.67;;;6.40;99.90;;;;;;5012840;28;20029;-49
2022/11/21 05:07:16;;;;;;;5.88;2.08;;;6.30;99.90;;;;;;5012892;28;20101;-42
2022/11/21 05:09:42;;;;;;;4.88;1.90;;;6.60;99.90;;;;;;5028176;28;20037;-49
2022/11/21 05:14:53;;;;;;;;;;;6.30;99.90;;;;;;5013553;28;20551;-50
2022/11/21 05:17:19;;;;;;;4.95;2.03;;;6.30;99.90;;;;;;5012802;28;19905;-51
2022/11/21 05:19:45;;;;;;;9.48;2.60;;;6.20;99.90;;;;;;5030190;28;20026;-42
2022/11/21 05:22:11;;;;;;;4.38;1.92;;;6.20;99.90;;;;;;5017516;28;20026;-46
2022/11/21 05:24:36;;;;;;;5.50;1.60;;;6.30;99.90;;;;;;5016258;28;20018;-50
2022/11/21 05:27:02;;;;;;;11.18;3.05;;;6.30;99.90;;;;;;5017494;28;20504;-50
2022/11/21 05:29:28;;;;;;;5.32;1.60;;;6.30;99.90;;;;;;5018116;28;20018;-52
2022/11/21 05:31:54;;;;;;;5.35;1.60;;;6.40;99.90;;;;;;5021376;28;20026;-43
2022/11/21 05:34:19;;;;;;;5.13;2.35;;;6.40;99.90;;;;;;5022017;28;20022;-46
2022/11/21 05:36:45;;;;;;;4.45;1.50;;;6.40;99.90;;;;;;5020619;28;20029;-49
2022/11/21 05:39:10;;;;;;;5.00;1.00;;;6.40;99.90;;;;;;5022669;28;20050;-50
2022/11/21 05:41:36;;;;;;;7.13;1.20;;;6.50;99.90;;;;;;5020672;23;20096;-42
2022/11/21 05:44:01;;;;;;;6.82;1.73;;;6.50;99.90;;;;;;4992059;28;20023;-45
2022/11/21 05:46:27;;;;;;;4.88;1.08;;;6.50;99.90;;;;;;4992545;28;20066;-47
2022/11/21 05:48:53;;;;;;;5.32;1.23;;;6.40;99.90;;;;;;4992734;28;20069;-43
2022/11/21 05:51:20;;;;;;;3.47;1.20;;;6.40;99.90;;;;;;4992684;28;20034;-43
2022/11/21 05:53:46;;;;;;;2.58;0.95;;;6.30;99.90;;;;;;4992193;28;20030;-48
2022/11/21 05:56:14;;;;;;;4.43;1.17;;;6.30;99.90;;;;;;4993137;28;20062;-46
2022/11/21 05:58:40;;;;;;;7.20;1.20;;;6.60;99.90;;;;;;4991994;28;20034;-45
2022/11/21 06:01:07;;;;;;;3.13;1.13;;;6.30;99.90;;;;;;4992322;28;20482;-47
2022/11/21 06:03:36;;;;;;;3.63;1.10;;;6.30;99.90;;;;;;4991343;28;20521;-42
2022/11/21 06:06:06;;;;;;;2.47;1.48;;;6.30;99.90;;;;;;4992038;28;20121;-48
2022/11/21 06:08:34;;;;;;;3.50;1.17;;;6.30;99.90;;;;;;4992157;28;20471;-43
2022/11/21 06:11:00;;;;;;;4.13;1.15;;;6.30;99.90;;;;;;4992517;28;20506;-44
2022/11/21 06:13:27;;;;;;;6.90;1.25;;;6.20;99.90;;;;;;4991444;28;20022;-46
2022/11/21 06:15:55;;;;;;;1.92;1.33;;;6.20;99.90;;;;;;4992306;28;20084;-43
2022/11/21 06:18:21;;;;;;;3.80;1.33;;;6.20;99.90;;;;;;4992078;28;20081;-48
2022/11/21 06:20:46;;;;;;;4.50;1.35;;;6.10;99.90;;;;;;4992045;28;20121;-44
2022/11/21 06:23:12;;;;;;;2.88;1.20;;;6.10;99.90;;;;;;4992126;28;20030;-45
2022/11/21 06:25:38;;;;;;;3.00;1.77;;;6.10;99.90;;;;;;4992134;28;20068;-45
2022/11/21 06:28:03;;;;;;;3.30;1.00;;;6.10;99.90;;;;;;4990622;28;20479;-38
2022/11/21 06:30:29;;;;;;;4.00;1.02;;;6.10;99.90;;;;;;4992184;28;20022;-45
2022/11/21 06:32:54;;;;;;;2.58;0.85;;;6.10;99.90;;;;;;4989436;28;20023;-43
2022/11/21 06:35:20;;;;;;;2.33;0.70;;;6.10;99.90;;;;;;4992079;28;20034;-41
2022/11/21 06:37:45;;;;;;;1.88;1.02;;;6.20;99.90;;;;;;4991931;28;20029;-43
2022/11/21 06:40:11;;;;;;;3.15;1.20;;;6.20;99.90;;;;;;4992997;28;20077;-42
2022/11/21 06:42:37;;;;;;;5.47;2.35;;;6.30;99.90;;;;;;4991065;28;20524;-43
2022/11/21 06:45:03;;;;;;;0.70;0.70;;;6.40;99.90;;;;;;4991773;28;20061;-43
2022/11/21 06:47:33;;;;;;;2.97;1.10;;;6.40;99.90;;;;;;4991430;28;20018;-46
2022/11/21 06:49:59;;;;;;;0.90;0.90;;;6.40;99.90;;;;;;4991975;28;20026;-45
2022/11/21 06:52:24;;;;;;;4.20;1.45;;;6.50;99.90;;;;;;4991122;28;20050;-44
2022/11/21 06:54:50;;;;;;;9.38;2.47;;;6.50;99.90;;;;;;4992075;28;20033;-47
2022/11/21 06:57:16;;;;;;;1.13;1.02;;;6.50;99.90;;;;;;4991653;28;20037;-45
2022/11/21 06:59:41;;;;;;;5.43;1.10;;;6.50;99.90;;;;;;4991101;28;20027;-42
2022/11/21 07:02:13;;;;;;;5.88;1.00;;;6.50;99.90;;;;;;4991523;28;20038;-42
2022/11/21 07:04:39;;;;;;;1.15;1.05;;;6.50;99.90;;;;;;4991645;28;20034;-44
2022/11/21 07:07:05;;;;;;;4.80;1.63;;;6.60;99.90;;;;;;4991929;28;20491;-50
2022/11/21 07:09:32;;;;;;;1.15;1.00;;;6.60;99.90;;;;;;4985135;28;20018;-49
2022/11/21 07:13:20;;;;;;;1.67;0.77;;;6.60;99.90;;;;;;4994105;28;20049;-45
2022/11/21 07:14:44;;;;;;;;;;;6.60;99.90;;;;;;4995760;28;20522;-44
2022/11/21 07:17:13;;;;;;;3.22;0.90;;;6.50;99.90;;;;;;4995453;28;19937;-45
2022/11/21 07:19:39;;;;;;;1.85;1.10;;;6.60;99.90;;;;;;5005514;28;20035;-48
2022/11/21 07:22:05;;;;;;;5.55;1.48;;;6.60;99.90;;;;;;4989072;28;20097;-43
2022/11/21 07:24:30;;;;;;;1.98;1.20;;;6.60;99.90;;;;;;4987447;28;20031;-48
2022/11/21 07:26:56;;;;;;;3.10;2.08;;;6.60;99.90;;;;;;4994530;28;20034;-46
2022/11/21 07:29:21;;;;;;;4.60;1.52;;;6.60;99.90;;;;;;4994977;28;20334;-47
2022/11/21 07:31:47;;;;;;;1.90;1.70;;;6.50;99.90;;;;;;4994733;28;20041;-45
2022/11/21 07:34:12;;;;;;;3.70;2.35;;;6.50;99.90;;;;;;4990353;28;20089;-45
2022/11/21 07:36:38;;;;;;;5.97;3.33;;;6.50;99.90;;;;;;4995033;28;20077;-45
2022/11/21 07:39:05;;;;;;;5.13;2.90;;;6.50;99.90;;;;;;4994797;28;20121;-46
2022/11/21 07:41:30;;;;;;;3.53;2.00;;;6.50;99.90;;;;;;4994143;28;20065;-48
2022/11/21 07:43:56;;;;;;;2.38;1.15;;;6.60;99.90;;;;;;4986018;28;20023;-44
2022/11/21 07:46:22;;;;;;;1.60;1.50;;;6.60;99.90;;;;;;4994759;28;20490;-44
2022/11/21 07:48:47;;;;;;;5.25;1.77;;;6.70;99.90;;;;;;4994573;28;20121;-44
2022/11/21 07:51:13;;;;;;;2.28;1.63;;;6.70;99.90;;;;;;4994136;28;20037;-48
2022/11/21 07:53:38;;;;;;;5.72;2.25;;;6.60;99.90;;;;;;4994163;28;20026;-40
2022/11/21 07:56:04;;;;;;;5.85;2.20;;;6.70;99.90;;;;;;4994464;28;20022;-45
2022/11/21 07:58:29;;;;;;;3.20;1.73;;;6.80;99.90;;;;;;4994243;28;20034;-44
2022/11/21 08:00:55;;;;;;;2.95;1.67;;;6.90;99.90;;;;;;4993981;28;20034;-42
2022/11/21 08:03:21;;;;;;;7.18;1.38;;;6.90;99.90;;;;;;4993724;28;20487;-41
2022/11/21 08:05:47;;;;;;;3.83;1.80;;;6.90;99.90;;;;;;4994516;28;20152;-48
2022/11/21 08:08:13;;;;;;;6.28;1.60;;;7.00;99.90;;;;;;4992380;28;20105;-45
2022/11/21 08:10:41;;;;;;;4.40;1.58;;;7.00;99.90;;;;;;4994136;28;20026;-47
2022/11/21 08:13:07;;;;;;;5.03;1.42;;;7.10;99.90;;;;;;4993259;28;20056;-43
2022/11/21 08:15:32;;;;;;;4.68;1.33;;;7.20;99.90;;;;;;4994304;28;20034;-45
2022/11/21 08:18:05;;;;;;;4.55;1.58;;;7.20;99.90;;;;;;4994336;28;20058;-49
2022/11/21 08:20:30;;;;;;;6.85;1.50;;;7.20;99.90;;;;;;4992658;28;20026;-49
2022/11/21 08:22:56;;;;;;;7.22;2.38;;;7.30;99.90;;;;;;4992676;28;20042;-44
2022/11/21 08:25:21;;;;;;;3.65;1.52;;;7.30;99.90;;;;;;4993964;28;20483;-46
2022/11/21 08:27:47;;;;;;;58.83;32.75;;;7.40;99.90;;;;;;4993529;28;20019;-45
2022/11/21 08:30:13;;;;;;;6.13;4.05;;;7.50;99.90;;;;;;4994501;28;20073;-42
2022/11/21 08:32:38;;;;;;;4.85;1.50;;;7.60;99.90;;;;;;4993297;28;20022;-45
2022/11/21 08:35:05;;;;;;;4.03;1.13;;;7.70;99.90;;;;;;4994001;28;20057;-42
2022/11/21 08:37:30;;;;;;;2.28;1.58;;;7.80;99.90;;;;;;4993791;28;20129;-42
2022/11/21 08:39:57;;;;;;;2.72;1.70;;;7.80;99.90;;;;;;4993944;28;20057;-45
2022/11/21 08:42:24;;;;;;;8.15;1.38;;;7.90;99.90;;;;;;4992168;28;20093;-43
2022/11/21 08:44:49;;;;;;;3.88;1.67;;;7.90;99.90;;;;;;4993827;28;20077;-45
2022/11/21 08:47:15;;;;;;;5.80;1.48;;;8.00;99.90;;;;;;4994014;28;20093;-44
2022/11/21 08:49:41;;;;;;;4.07;1.48;;;8.00;99.90;;;;;;4994519;28;20045;-47
2022/11/21 08:52:06;;;;;;;2.03;1.20;;;8.00;99.90;;;;;;4993226;28;20575;-45
2022/11/21 08:54:32;;;;;;;2.95;1.33;;;8.00;99.90;;;;;;4995915;28;20026;-45
2022/11/21 08:56:57;;;;;;;9.80;2.25;;;8.00;99.90;;;;;;4995704;28;20029;-41
2022/11/21 08:59:23;;;;;;;3.97;1.40;;;8.00;99.90;;;;;;4995382;28;20041;-41
2022/11/21 09:01:48;;;;;;;2.70;1.20;;;8.00;99.90;;;;;;4994858;28;20026;-44
2022/11/21 09:04:14;;;;;;;4.43;1.10;;;8.00;99.90;;;;;;4995221;28;20122;-43
2022/11/21 09:06:39;;;;;;;4.30;1.95;;;7.90;99.90;;;;;;4995822;28;20383;-43
2022/11/21 09:09:05;;;;;;;3.03;1.30;;;8.00;99.90;;;;;;4993962;28;20022;-41
2022/11/21 09:11:31;;;;;;;2.63;1.50;;;8.00;99.90;;;;;;4994828;28;20018;-47
2022/11/21 09:19:26;;;;;;;7.32;1.38;;;8.00;99.90;;;;;;4993475;28;20005;-44
2022/11/21 09:21:52;;;;;;;3.95;1.67;;;8.00;99.90;;;;;;4993174;28;20053;-38
2022/11/21 09:24:18;;;;;;;4.95;1.40;;;7.90;99.90;;;;;;4993696;28;20022;-42
2022/11/21 09:26:45;;;;;;;5.80;2.05;;;7.90;99.90;;;;;;5008432;28;20046;-46
2022/11/21 09:29:10;;;;;;;5.55;2.67;;;8.00;99.90;;;;;;4993248;28;20114;-42
2022/11/21 09:31:36;;;;;;;5.50;1.20;;;8.00;99.90;;;;;;4992207;28;20073;-42
2022/11/21 09:34:02;;;;;;;2.05;1.45;;;7.90;99.90;;;;;;4992498;28;20030;-43
2022/11/21 09:36:28;;;;;;;4.25;1.92;;;7.80;99.90;;;;;;5008364;28;20026;-44
2022/11/21 09:38:53;;;;;;;4.75;1.45;;;7.80;99.90;;;;;;4993051;28;20026;-49
2022/11/21 09:41:53;;;;;;;5.85;1.83;;;7.80;99.90;;;;;;4990658;28;20076;-41
2022/11/21 09:44:51;;;;;;;3.95;1.27;;;7.90;99.90;;;;;;4994560;28;20517;-44
2022/11/21 09:47:33;;;;;;;10.80;6.07;;;7.90;99.90;;;;;;4993043;28;20030;-44
2022/11/21 09:50:00;;;;;;;34.65;19.83;;;7.90;99.90;;;;;;4993436;28;20094;-46
2022/11/21 09:52:40;;;;;;;11.40;5.47;;;8.00;99.90;;;;;;4992179;28;20025;-47
2022/11/21 09:55:25;;;;;;;5.00;1.60;;;8.10;99.90;;;;;;4992632;28;20372;-42
2022/11/21 09:57:50;;;;;;;1.27;1.02;;;8.20;99.90;;;;;;4992738;28;20030;-47
2022/11/21 10:00:22;;;;;;;3.05;1.00;;;8.30;99.90;;;;;;4993041;28;20029;-44
2022/11/21 10:02:48;;;;;;;2.42;1.50;;;8.50;99.90;;;;;;4991402;28;20030;-45
2022/11/21 10:05:14;;;;;;;3.55;2.03;;;9.20;99.90;;;;;;4992649;28;20394;-42
2022/11/21 10:07:41;;;;;;;2.95;1.50;;;10.30;99.90;;;;;;4993049;28;20031;-41
2022/11/21 10:10:39;;;;;;;3.10;1.23;;;11.10;99.90;;;;;;4992868;28;20102;-44
2022/11/21 10:13:38;;;;;;;3.53;1.42;;;11.70;99.90;;;;;;4989686;28;20491;-44
2022/11/21 10:16:24;;;;;;;2.72;1.23;;;12.10;99.90;;;;;;4992607;28;20034;-40
2022/11/21 10:19:19;;;;;;;4.28;1.30;;;12.30;99.90;;;;;;4991095;28;20189;-44
2022/11/21 10:22:07;;;;;;;7.07;1.67;;;12.10;99.90;;;;;;4992009;28;20125;-44
2022/11/21 10:24:54;;;;;;;3.30;1.20;;;11.30;99.90;;;;;;4992386;28;20465;-45
2022/11/21 10:27:30;;;;;;;3.83;1.25;;;10.50;99.90;;;;;;4992578;28;20022;-43
2022/11/21 10:30:12;;;;;;;2.05;1.13;;;9.90;99.90;;;;;;4991897;28;20193;-44
2022/11/21 10:32:42;;;;;;;6.93;1.83;;;9.70;99.90;;;;;;4991574;28;20036;-43
2022/11/21 10:35:41;;;;;;;2.50;1.10;;;9.50;99.90;;;;;;4992617;28;20030;-43
2022/11/21 10:38:16;;;;;;;2.97;1.58;;;9.30;99.90;;;;;;4989876;28;20034;-42
2022/11/21 10:40:46;;;;;;;2.83;1.13;;;9.20;99.90;;;;;;4991263;28;20026;-42
2022/11/21 10:46:19;;;;;;;2.25;1.20;;;9.00;99.90;;;;;;4991011;28;20169;-49
2022/11/21 10:49:01;;;;;;;2.55;1.00;;;9.00;99.90;;;;;;4995973;28;20050;-42
2022/11/21 10:51:54;;;;;;;2.42;1.20;;;9.10;99.90;;;;;;4996391;28;20026;-43
2022/11/21 10:54:32;;;;;;;6.57;1.20;;;9.10;99.90;;;;;;4996587;28;20072;-42
2022/11/21 10:57:17;;;;;;;5.95;1.70;;;9.30;99.90;;;;;;4995720;28;20019;-46
2022/11/21 10:59:58;;;;;;;2.63;1.00;;;9.50;99.90;;;;;;4976617;28;20141;-47
2022/11/21 11:02:25;;;;;;;2.13;0.85;;;9.80;99.90;;;;;;4976340;28;20069;-48
2022/11/21 11:05:15;;;;;;;4.55;1.23;;;9.90;99.90;;;;;;4994152;28;20045;-47
2022/11/21 11:07:41;;;;;;;4.05;1.05;;;10.10;99.90;;;;;;4975959;28;20022;-39
2022/11/21 11:10:23;;;;;;;2.78;1.48;;;10.20;99.90;;;;;;4988169;28;20022;-40
2022/11/21 11:15:38;;;;;;;3.83;1.05;;;10.10;99.90;;;;;;4996044;28;20065;-42
2022/11/21 11:18:05;;;;;;;5.10;1.27;;;10.10;99.90;;;;;;4995618;28;20026;-42
2022/11/21 11:20:41;;;;;;;9.73;2.08;;;10.10;99.90;;;;;;4996009;28;20034;-42
2022/11/21 11:23:18;;;;;;;4.45;1.10;;;9.80;99.90;;;;;;4995300;28;20029;-43
2022/11/21 11:25:50;;;;;;;3.08;1.42;;;9.70;99.90;;;;;;4992535;28;20049;-42
2022/11/21 11:28:18;;;;;;;3.35;1.50;;;9.60;99.90;;;;;;4983900;28;20023;-46
2022/11/21 11:30:44;;;;;;;2.22;1.33;;;9.50;99.90;;;;;;4975434;28;20027;-49
2022/11/21 11:33:28;;;;;;;16.63;8.23;;;9.50;99.90;;;;;;4968567;28;20026;-51
2022/11/21 11:36:02;;;;;;;22.13;11.18;;;9.50;99.90;;;;;;4986332;28;20076;-50
2022/11/21 11:38:30;;;;;;;5.40;1.52;;;9.50;99.90;;;;;;5005938;28;20027;-47
2022/11/21 11:41:01;;;;;;;8.43;2.00;;;9.50;99.90;;;;;;4988851;28;20041;-49
2022/11/21 11:49:04;;;;;;;3.00;1.48;;;9.50;99.90;;;;;;4971862;28;20027;-57
2022/11/21 11:51:37;;;;;;;9.48;1.75;;;9.40;99.90;;;;;;4971176;28;20076;-54
2022/11/21 11:54:13;;;;;;;5.00;1.50;;;9.40;99.90;;;;;;4986098;28;20034;-54
2022/11/21 11:56:41;;;;;;;2.70;1.42;;;9.40;99.90;;;;;;4969994;28;20019;-58
2022/11/21 11:59:25;;;;;;;1.50;1.13;;;9.50;99.90;;;;;;4969834;28;20038;-58
2022/11/21 12:01:51;;;;;;;5.38;1.40;;;9.50;99.90;;;;;;4973463;28;20117;-56
2022/11/21 12:04:19;;;;;;;5.13;1.70;;;9.60;99.90;;;;;;4981631;28;20768;-53
2022/11/21 12:06:49;;;;;;;5.40;1.23;;;9.80;99.90;;;;;;4987097;28;20375;-54
2022/11/21 12:09:39;;;;;;;8.82;1.95;;;9.80;99.90;;;;;;4989889;28;20034;-49
2022/11/21 12:12:18;;;;;;;7.50;2.47;;;9.90;99.90;;;;;;4992766;28;20548;-55
2022/11/21 12:17:39;;;;;;;7.72;1.80;;;10.00;99.90;;;;;;4988662;28;20069;-53
2022/11/21 12:20:24;;;;;;;6.15;2.10;;;10.00;99.90;;;;;;4971287;28;20022;-57
2022/11/21 12:22:52;;;;;;;4.95;1.48;;;10.00;99.90;;;;;;4979588;28;20029;-57
2022/11/21 12:25:22;;;;;;;4.22;1.25;;;10.00;99.90;;;;;;4983893;28;20513;-53
2022/11/21 12:27:53;;;;;;;73.10;39.13;;;10.00;99.90;;;;;;4985372;28;20041;-53
2022/11/21 12:30:26;;;;;;;60.92;27.73;;;10.10;99.90;;;;;;4989592;28;20038;-50
2022/11/21 12:33:03;;;;;;;7.47;2.17;;;10.10;99.90;;;;;;4969718;28;20030;-45
2022/11/21 12:35:35;;;;;;;9.88;1.80;;;10.10;99.90;;;;;;4988370;28;20038;-52
2022/11/21 12:38:08;;;;;;;5.85;1.52;;;10.00;99.90;;;;;;4983878;28;20045;-49
2022/11/21 12:40:49;;;;;;;6.25;1.55;;;10.00;99.90;;;;;;4981596;28;20110;-54
2022/11/21 12:43:36;;;;;;;4.72;1.50;;;10.10;99.90;;;;;;4966119;28;20407;-57
2022/11/21 12:46:17;;;;;;;5.18;1.27;;;10.10;99.90;;;;;;4970177;28;20070;-55
2022/11/21 12:55:18;;;;;;;3.28;1.60;;;10.00;99.90;;;;;;4988172;28;20125;-56
2022/11/21 12:58:04;;;;;;;8.65;2.00;;;9.90;99.90;;;;;;4973459;28;20110;-63
2022/11/21 13:00:47;;;;;;;5.55;1.52;;;9.80;99.90;;;;;;4986725;28;20047;-50
2022/11/21 13:03:41;;;;;;;3.70;1.90;;;9.80;99.90;;;;;;4979351;28;20098;-47
2022/11/21 13:06:14;;;;;;;7.20;1.30;;;9.70;99.90;;;;;;4983109;28;20033;-43
2022/11/21 13:08:43;;;;;;;5.13;1.73;;;9.60;99.90;;;;;;4969240;28;20127;-51
2022/11/21 13:14:15;;;;;;;9.07;1.48;;;9.50;99.90;;;;;;4984808;28;20509;-41
2022/11/21 13:16:45;;;;;;;6.63;1.88;;;9.60;99.90;;;;;;4981848;28;20048;-46
2022/11/21 13:19:52;;;;;;;7.00;2.08;;;9.50;99.90;;;;;;4968547;28;20030;-44
2022/11/21 13:22:36;;;;;;;11.60;2.35;;;9.40;99.90;;;;;;4978393;28;20022;-47
2022/11/21 13:25:06;;;;;;;3.83;1.75;;;9.30;99.90;;;;;;4973857;28;20041;-51
2022/11/21 13:27:37;;;;;;;6.68;1.45;;;9.20;99.90;;;;;;4964450;28;20054;-48
2022/11/21 13:30:05;;;;;;;10.25;2.47;;;9.10;99.90;;;;;;4970285;28;20026;-46
2022/11/21 13:32:54;;;;;;;4.93;1.88;;;9.20;99.90;;;;;;4982763;28;20396;-43
2022/11/21 13:35:19;;;;;;;8.50;1.52;;;9.20;99.90;;;;;;4983397;28;20038;-51
2022/11/21 13:37:48;;;;;;;3.63;1.55;;;9.20;99.90;;;;;;4984641;28;20027;-46
2022/11/21 13:40:37;;;;;;;4.95;1.30;;;9.20;99.90;;;;;;4977635;28;20027;-47